createdAt,value
2023-08-13T10:43:43.932Z,5.20
2023-08-13T10:46:11.789Z,3.60
2023-08-13T10:48:39.306Z,4.75
2023-08-13T10:51:06.952Z,3.78
2023-08-13T10:53:36.158Z,4.05
2023-08-13T10:56:04.018Z,2.80
2023-08-13T10:58:38.483Z,4.25
2023-08-13T11:01:22.943Z,3.53
2023-08-13T11:03:57.157Z,6.05
2023-08-13T11:06:26.182Z,4.38
2023-08-13T11:08:55.268Z,4.35
2023-08-13T11:11:23.045Z,6.72
2023-08-13T11:13:50.992Z,3.63
2023-08-13T11:16:18.700Z,4.63
2023-08-13T11:18:46.250Z,2.85
2023-08-13T11:21:13.836Z,4.45
2023-08-13T11:23:41.365Z,4.18
2023-08-13T11:26:10.332Z,5.00
2023-08-13T11:28:38.674Z,3.28
2023-08-13T11:31:06.194Z,3.40
2023-08-13T11:33:33.835Z,4.57
2023-08-13T11:36:02.140Z,5.80
2023-08-13T11:38:29.797Z,4.32
2023-08-13T11:40:57.525Z,4.20
2023-08-13T11:43:29.629Z,6.18
2023-08-13T11:45:57.173Z,4.38
2023-08-13T11:48:25.369Z,5.35
2023-08-13T11:51:25.293Z,4.00
2023-08-13T11:53:53.040Z,2.65
2023-08-13T11:56:20.801Z,3.72
2023-08-13T11:58:50.026Z,3.80
2023-08-13T12:01:17.785Z,3.67
2023-08-13T12:03:46.285Z,2.22
2023-08-13T12:06:14.714Z,4.35
2023-08-13T12:08:48.619Z,3.40
2023-08-13T12:11:17.497Z,4.57
2023-08-13T12:13:48.810Z,2.47
2023-08-13T12:16:16.914Z,4.13
2023-08-13T12:18:44.693Z,6.65
2023-08-13T12:21:12.222Z,2.85
2023-08-13T12:23:39.725Z,6.72
2023-08-13T12:26:07.222Z,6.55
2023-08-13T12:28:35.094Z,4.60
2023-08-13T12:31:02.722Z,4.88
2023-08-13T12:33:30.183Z,3.97
2023-08-13T12:35:57.752Z,5.07
2023-08-13T12:38:25.213Z,6.85
2023-08-13T12:40:52.648Z,3.63
2023-08-13T12:43:20.120Z,6.22
2023-08-13T12:45:47.976Z,7.50
2023-08-13T12:48:15.505Z,5.30
2023-08-13T12:50:43.113Z,11.05
2023-08-13T12:53:10.586Z,7.07
2023-08-13T12:55:38.146Z,6.03
2023-08-13T12:58:05.765Z,3.85
2023-08-13T13:00:33.336Z,6.47
2023-08-13T13:03:00.921Z,6.25
2023-08-13T13:05:28.527Z,5.30
2023-08-13T13:07:56.871Z,4.32
2023-08-13T13:10:25.145Z,5.53
2023-08-13T13:12:52.749Z,6.15
2023-08-13T13:15:20.349Z,6.70
2023-08-13T13:17:48.141Z,6.18
2023-08-13T13:20:15.716Z,4.00
2023-08-13T13:22:43.703Z,3.80
2023-08-13T13:25:15.051Z,4.18
2023-08-13T13:27:43.181Z,5.50
2023-08-13T13:30:12.797Z,5.53
2023-08-13T13:32:40.914Z,3.97
2023-08-13T13:35:08.986Z,3.92
2023-08-13T13:37:36.642Z,7.15
2023-08-13T13:40:05.176Z,5.45
2023-08-13T13:42:32.741Z,5.38
2023-08-13T13:45:00.256Z,5.38
2023-08-13T13:47:27.885Z,5.53
2023-08-13T13:49:55.407Z,5.70
2023-08-13T13:52:22.918Z,6.65
2023-08-13T13:54:53.683Z,5.00
2023-08-13T13:57:21.555Z,6.35
2023-08-13T13:59:49.088Z,5.85
2023-08-13T14:02:17.069Z,6.15
2023-08-13T14:04:44.978Z,5.00
2023-08-13T14:07:13.723Z,3.42
2023-08-13T14:09:41.766Z,3.50
2023-08-13T14:12:09.328Z,4.32
2023-08-13T14:14:37.160Z,3.65
2023-08-13T14:17:04.771Z,4.65
2023-08-13T14:19:32.330Z,4.60
2023-08-13T14:21:59.915Z,3.92
2023-08-13T14:24:27.405Z,2.53
2023-08-13T14:26:54.940Z,3.92
2023-08-13T14:29:22.397Z,4.40
2023-08-13T14:31:50.417Z,4.03
2023-08-13T14:34:18.183Z,5.43
2023-08-13T14:36:45.899Z,6.25
2023-08-13T14:39:13.391Z,5.95
2023-08-13T14:41:40.953Z,6.90
2023-08-13T14:44:08.481Z,6.28
2023-08-13T14:46:35.969Z,9.73
2023-08-13T14:49:03.468Z,6.70
2023-08-13T14:51:30.970Z,5.00
2023-08-13T14:53:58.450Z,2.72
2023-08-13T14:56:26.549Z,4.05
2023-08-13T14:58:54.183Z,2.85
2023-08-13T15:01:21.776Z,1.95
2023-08-13T15:03:49.442Z,2.03
2023-08-13T15:06:17.136Z,1.58
2023-08-13T15:08:45.468Z,1.45
2023-08-13T15:11:13.073Z,0.80
2023-08-13T15:13:40.766Z,1.75
2023-08-13T15:16:08.499Z,1.38
2023-08-13T15:18:36.076Z,2.42
2023-08-13T15:21:03.678Z,0.82
2023-08-13T15:23:31.187Z,0.85
2023-08-13T15:25:59.173Z,1.80
2023-08-13T15:28:26.781Z,2.92
2023-08-13T15:30:56.346Z,6.10
2023-08-13T15:33:24.974Z,6.18
2023-08-13T15:35:58.378Z,5.13
2023-08-13T15:38:27.360Z,4.32
2023-08-13T15:40:55.131Z,7.30
2023-08-13T15:43:23.562Z,5.70
2023-08-13T15:45:51.189Z,6.05
2023-08-13T15:48:18.975Z,6.97
2023-08-13T15:50:46.763Z,5.80
2023-08-13T15:53:14.409Z,4.75
2023-08-13T15:55:43.088Z,5.65
2023-08-13T15:58:11.236Z,7.68
2023-08-13T16:00:39.766Z,4.95
2023-08-13T16:03:07.993Z,4.75
2023-08-13T16:05:35.877Z,4.53
2023-08-13T16:08:06.309Z,4.35
2023-08-13T16:10:36.275Z,4.78
2023-08-13T16:13:05.318Z,5.35
2023-08-13T16:15:33.231Z,5.35
2023-08-13T16:18:00.926Z,3.83
2023-08-13T16:20:28.641Z,3.60
2023-08-13T16:22:56.205Z,5.15
2023-08-13T16:25:23.825Z,4.32
2023-08-13T16:27:51.381Z,6.07
2023-08-13T16:30:18.983Z,5.45
2023-08-13T16:32:46.663Z,7.32
2023-08-13T16:35:14.575Z,5.15
2023-08-13T16:37:42.088Z,5.05
2023-08-13T16:40:09.892Z,7.07
2023-08-13T16:42:51.160Z,6.18
2023-08-13T16:45:26.107Z,5.82
2023-08-13T16:47:55.727Z,6.38
2023-08-13T16:50:24.387Z,10.27
2023-08-13T16:52:52.013Z,6.28
2023-08-13T16:55:19.983Z,8.27
2023-08-13T16:57:47.466Z,10.23
2023-08-13T17:00:15.201Z,7.43
2023-08-13T17:02:46.417Z,8.65
2023-08-13T17:05:14.393Z,7.30
2023-08-13T17:07:42.292Z,5.20
2023-08-13T17:10:10.296Z,4.55
2023-08-13T17:12:37.864Z,5.30
2023-08-13T17:15:21.201Z,7.75
2023-08-13T17:17:54.112Z,9.45
2023-08-13T17:20:22.772Z,7.30
2023-08-13T17:22:51.062Z,6.97
2023-08-13T17:25:19.270Z,6.38
2023-08-13T17:27:47.368Z,4.72
2023-08-13T17:30:15.202Z,2.97
2023-08-13T17:32:42.841Z,2.17
2023-08-13T17:35:10.566Z,2.65
2023-08-13T17:37:38.316Z,4.20
2023-08-13T17:40:06.731Z,1.90
2023-08-13T17:42:34.342Z,3.20
2023-08-13T17:45:01.914Z,2.35
2023-08-13T17:47:29.859Z,1.90
2023-08-13T17:49:58.460Z,3.03
2023-08-13T17:52:28.838Z,3.58
2023-08-13T17:54:56.430Z,1.63
2023-08-13T17:57:23.988Z,2.10
2023-08-13T17:59:51.523Z,2.58
2023-08-13T18:02:28.845Z,2.45
2023-08-13T18:04:57.013Z,3.97
2023-08-13T18:07:27.306Z,2.50
2023-08-13T18:09:55.631Z,2.63
2023-08-13T18:12:23.141Z,2.33
2023-08-13T18:14:51.799Z,1.77
2023-08-13T18:17:19.884Z,2.50
2023-08-13T18:19:48.567Z,1.50
2023-08-13T18:22:16.121Z,3.67
2023-08-13T18:24:43.697Z,2.30
2023-08-13T18:27:11.245Z,2.35
2023-08-13T18:29:38.948Z,2.63
2023-08-13T18:32:06.712Z,2.65
2023-08-13T18:34:34.264Z,1.85
2023-08-13T18:37:01.769Z,2.03
2023-08-13T18:39:29.314Z,2.58
2023-08-13T18:41:56.839Z,1.30
2023-08-13T18:44:24.395Z,5.78
2023-08-13T18:46:51.928Z,1.70
2023-08-13T18:49:19.734Z,3.85
2023-08-13T18:51:47.232Z,4.13
2023-08-13T18:54:14.774Z,1.17
2023-08-13T18:56:42.246Z,3.05
2023-08-13T18:59:09.989Z,2.97
2023-08-13T19:01:37.605Z,2.38
2023-08-13T19:04:06.208Z,3.83
2023-08-13T19:06:33.702Z,3.42
2023-08-13T19:09:01.383Z,0.80
2023-08-13T19:11:28.985Z,2.42
2023-08-13T19:13:56.585Z,3.28
2023-08-13T19:16:24.211Z,1.85
2023-08-13T19:18:52.273Z,4.40
2023-08-13T19:21:19.875Z,2.70
2023-08-13T19:23:47.505Z,2.20
2023-08-13T19:26:15.025Z,3.67
2023-08-13T19:28:42.555Z,4.05
2023-08-13T19:31:10.105Z,3.97
2023-08-13T19:33:38.463Z,2.67
2023-08-13T19:36:06.592Z,4.95
2023-08-13T19:38:34.009Z,2.90
2023-08-13T19:41:01.514Z,2.95
2023-08-13T19:43:29.013Z,3.28
2023-08-13T19:45:56.669Z,1.30
2023-08-13T19:48:24.236Z,2.25
2023-08-13T19:50:53.140Z,2.63
2023-08-13T19:53:21.211Z,4.07
2023-08-13T19:55:50.837Z,5.30
2023-08-13T19:58:19.040Z,1.88
2023-08-13T20:00:46.583Z,4.78
2023-08-13T20:03:20.349Z,2.03
2023-08-13T20:05:47.941Z,2.22
2023-08-13T20:08:15.508Z,3.60
2023-08-13T20:10:45.993Z,1.05
2023-08-13T20:13:14.831Z,3.13
2023-08-13T20:15:42.296Z,1.77
2023-08-13T20:18:09.973Z,2.28
2023-08-13T20:20:37.420Z,1.80
2023-08-13T20:23:04.980Z,2.55
2023-08-13T20:25:32.993Z,3.30
2023-08-13T20:28:00.593Z,3.10
2023-08-13T20:30:28.156Z,4.47
2023-08-13T20:32:55.774Z,3.38
2023-08-13T20:35:23.282Z,3.65
2023-08-13T20:37:50.974Z,3.13
2023-08-13T20:40:18.511Z,3.05
2023-08-13T20:42:46.242Z,1.38
2023-08-13T20:45:13.749Z,3.55
2023-08-13T20:47:41.599Z,3.15
2023-08-13T20:50:16.716Z,1.58
2023-08-13T20:52:46.198Z,2.45
2023-08-13T20:55:13.887Z,2.67
2023-08-13T20:57:41.558Z,2.40
2023-08-13T21:00:10.091Z,2.80
2023-08-13T21:02:37.584Z,1.17
2023-08-13T21:05:05.929Z,1.20
2023-08-13T21:07:33.423Z,1.52
2023-08-13T21:10:00.903Z,1.60
2023-08-13T21:12:28.393Z,2.50
2023-08-13T21:14:55.882Z,1.83
2023-08-13T21:17:23.376Z,1.42
2023-08-13T21:19:50.904Z,2.95
2023-08-13T21:22:18.779Z,1.52
2023-08-13T21:24:46.569Z,1.75
2023-08-13T21:27:14.110Z,2.15
2023-08-13T21:29:41.625Z,6.07
2023-08-13T21:32:09.125Z,1.35
2023-08-13T21:34:36.564Z,2.90
2023-08-13T21:37:04.372Z,2.17
2023-08-13T21:39:31.910Z,1.15
2023-08-13T21:41:59.354Z,1.35
2023-08-13T21:44:26.842Z,1.83
2023-08-13T21:46:54.459Z,1.77
2023-08-13T21:49:21.958Z,2.63
2023-08-13T21:51:50.269Z,1.15
2023-08-13T21:54:18.709Z,2.47
2023-08-13T21:56:46.273Z,3.35
2023-08-13T21:59:13.781Z,1.23
2023-08-13T22:01:41.337Z,4.30
2023-08-13T22:04:08.893Z,2.08
2023-08-13T22:06:36.636Z,1.98
2023-08-13T22:09:04.647Z,1.45
2023-08-13T22:11:32.380Z,3.42
2023-08-13T22:13:59.843Z,2.20
2023-08-13T22:16:27.421Z,1.30
2023-08-13T22:18:54.915Z,2.13
2023-08-13T22:21:22.493Z,1.15
2023-08-13T22:23:50.122Z,3.25
2023-08-13T22:26:19.095Z,3.05
2023-08-13T22:28:47.452Z,3.72
2023-08-13T22:31:15.386Z,2.67
2023-08-13T22:33:42.959Z,2.53
2023-08-13T22:36:10.416Z,2.28
2023-08-13T22:38:38.016Z,3.72
2023-08-13T22:41:05.553Z,1.60
2023-08-13T22:43:33.157Z,2.95
2023-08-13T22:46:00.680Z,4.65
2023-08-13T22:48:28.421Z,2.08
2023-08-13T22:50:55.933Z,2.10
2023-08-13T22:53:23.516Z,1.63
2023-08-13T22:55:50.990Z,1.60
2023-08-13T22:58:18.515Z,1.70
2023-08-13T23:00:45.982Z,1.83
2023-08-13T23:03:13.613Z,1.58
2023-08-13T23:05:41.174Z,1.35
2023-08-13T23:08:08.670Z,1.15
2023-08-13T23:10:36.160Z,1.70
2023-08-13T23:13:03.753Z,1.58
2023-08-13T23:15:31.252Z,1.17
2023-08-13T23:17:59.013Z,2.30
2023-08-13T23:20:26.617Z,4.07
2023-08-13T23:22:55.530Z,2.28
2023-08-13T23:25:23.071Z,2.17
2023-08-13T23:27:50.678Z,1.20
2023-08-13T23:30:18.234Z,1.50
2023-08-13T23:32:46.497Z,2.10
2023-08-13T23:35:14.045Z,1.98
2023-08-13T23:37:41.583Z,2.28
2023-08-13T23:40:10.021Z,1.05
2023-08-13T23:42:37.642Z,2.03
2023-08-13T23:45:05.955Z,2.60
2023-08-13T23:47:33.459Z,4.78
2023-08-13T23:50:03.014Z,1.98
2023-08-13T23:52:32.393Z,3.97
2023-08-13T23:54:59.824Z,1.55
2023-08-13T23:57:27.337Z,1.83
2023-08-13T23:59:54.810Z,3.75
